Grottaglie, Italy

4:24 PM CET on March 04, 2015 (GMT +0100)
Italia - Montegranaro | Change Station
CLOSE
Current Station
Personal Weather Station
Location: Taranto, PUGLIA
Elevation: 49 ft
Nearby Weather Stations
Active Advisory: Wind

Elev 49 ft 40.45 °N, 17.26 °E | Updated 9 seconds ago

Clear
Clear
60.0 °F
Feels Like 60.0 °F
N
9.2
Wind Variable Wind from SSW
Gusts 9.2 mph

Today
High -- | Low -- °F
--% Chance of Precip.
Yesterday
High -- | Low -- °F
Precip. -- in
6:20 AM 5:44 PM
Waxing Gibbous, 99% visible
Pressure 30.09 in
Visibility -9999.0 miles
Clouds
Dew Point 53 °F
Humidity 78%
Rainfall 0.00 in
Snow Depth Not available.
UV Not available.
Pollen Not available.
Air Quality Not available.
Flu Activity Not available.
METAR LIBH 041455Z 17005KT CAVOK 15/14 Q1019 RMK BKN FEW090 BKN200 QUK / QUL / VIS MAR 15 KM VIS MIN 9999

More Conditions Fewer Conditions

Pressure 30.09 in
Visibility -9999.0 miles
Clouds
Dew Point 53 °F
Humidity 78%
Rainfall 0.00 in
Snow Depth Not available.
UV Not available.
Pollen Not available.
Air Quality Not available.
Flu Activity Not available.
METAR LIBH 041455Z 17005KT CAVOK 15/14 Q1019 RMK BKN FEW090 BKN200 QUK / QUL / VIS MAR 15 KM VIS MIN 9999

More Conditions Fewer Conditions

10-Day Weather Forecast

Almanac

Astronomy

Mar. 04, 2015 Rise Set
Actual Time
Civil Twilight
Nautical Twilight
Astronomical Twilight
Moon
Length of Visible Light
Length of Day
Tomorrow will be .
, % of the Moon is Illuminated

Today's Extremes

Country Highs Country Lows

Community

WunderPhotos

Upload Photos

1,802,489 photos uploaded!

WunderBlogs® & News

Nearby

Air Quality

  Air Quality AQ Index Pollutant
Not available.

Snow Depth

Station Depth Elevation

Earthquake Activity

City Distance Mag. Time & Date
Minimum magnitude displayed is 2.5.

Coastal Water Temperatures

Place Temperature

Nearby Weather Stations